Time;durP1;ratioP1;P1;durP2;ratioP2;P2;SDS_P1;SDS_P2;PMS_P1;PMS_P2;Temp;Humidity;BMP_temperature;BMP_pressure;BME280_temperature;BME280_humidity;BME280_pressure;Samples;Min_cycle;Max_cycle;Signal;HPM_P1;HPM_P2
2022/01/10 00:01:29;;;;;;;66.37;48.17;;;;;;;;;;5106212;28;20449;-70
2022/01/10 00:03:55;;;;;;;67.23;46.83;;;;;;;;;;5101936;27;20033;-69
2022/01/10 00:06:22;;;;;;;70.90;49.77;;;;;;;;;;5095973;28;20500;-70
2022/01/10 00:08:48;;;;;;;74.00;48.20;;;;;;;;;;5106289;28;20024;-70
2022/01/10 00:11:14;;;;;;;71.53;49.13;;;;;;;;;;5096274;28;20028;-70
2022/01/10 00:13:40;;;;;;;69.37;49.17;;;;;;;;;;5102853;28;20038;-70
2022/01/10 00:16:05;;;;;;;72.57;48.73;;;;;;;;;;5097094;28;20027;-70
2022/01/10 00:18:31;;;;;;;71.77;48.63;;;;;;;;;;5112187;28;20020;-70
2022/01/10 00:20:57;;;;;;;68.63;47.37;;;;;;;;;;5108197;28;20103;-70
2022/01/10 00:23:23;;;;;;;69.03;47.67;;;;;;;;;;5114626;28;20111;-70
2022/01/10 00:25:49;;;;;;;66.63;47.17;;;;;;;;;;5108410;28;20409;-70
2022/01/10 00:28:15;;;;;;;70.83;46.33;;;;;;;;;;5104417;28;20028;-70
2022/01/10 00:30:41;;;;;;;68.53;48.23;;;;;;;;;;5095127;28;20027;-70
2022/01/10 00:33:07;;;;;;;67.67;47.93;;;;;;;;;;5101075;28;20493;-70
2022/01/10 00:35:33;;;;;;;72.73;50.40;;;;;;;;;;5113550;28;20016;-70
2022/01/10 00:37:59;;;;;;;70.57;48.50;;;;;;;;;;5114067;28;20027;-70
2022/01/10 00:40:25;;;;;;;68.40;48.37;;;;;;;;;;5108723;28;20069;-70
2022/01/10 00:42:56;;;;;;;70.50;49.13;;;;;;;;;;5107933;28;20076;-70
2022/01/10 00:45:26;;;;;;;69.97;47.73;;;;;;;;;;5098125;28;20027;-70
2022/01/10 00:47:59;;;;;;;67.93;46.77;;;;;;;;;;5095337;28;20119;-70
2022/01/10 00:50:27;;;;;;;70.73;48.57;;;;;;;;;;5095218;28;20043;-69
2022/01/10 00:52:54;;;;;;;72.73;50.43;;;;;;;;;;5107989;28;20024;-70
2022/01/10 00:55:20;;;;;;;65.60;47.00;;;;;;;;;;5098730;28;20472;-69
2022/01/10 00:57:47;;;;;;;68.10;47.00;;;;;;;;;;5107867;28;20034;-70
2022/01/10 01:00:13;;;;;;;69.93;48.47;;;;;;;;;;5099397;28;20589;-69
2022/01/10 01:02:40;;;;;;;68.70;46.97;;;;;;;;;;5104170;28;20053;-70
2022/01/10 01:05:08;;;;;;;69.83;47.77;;;;;;;;;;5098924;28;20105;-69
2022/01/10 01:07:34;;;;;;;68.00;47.67;;;;;;;;;;5105824;28;20161;-70
2022/01/10 01:12:50;;;;;;;63.27;46.43;;;;;;;;;;5104883;28;20042;-69
2022/01/10 01:15:19;;;;;;;66.27;46.40;;;;;;;;;;5095611;28;20094;-69
2022/01/10 01:17:58;;;;;;;65.47;44.73;;;;;;;;;;5109610;28;20043;-70
2022/01/10 01:20:30;;;;;;;65.17;45.90;;;;;;;;;;5099169;28;20016;-69
2022/01/10 01:25:41;;;;;;;62.05;43.35;;;;;;;;;;5111434;28;20054;-69
2022/01/10 01:28:07;;;;;;;61.07;44.23;;;;;;;;;;5094849;28;20145;-69
2022/01/10 01:30:33;;;;;;;62.33;44.87;;;;;;;;;;5101216;28;20483;-69
2022/01/10 01:32:59;;;;;;;60.70;42.17;;;;;;;;;;5100186;28;20419;-69
2022/01/10 01:35:26;;;;;;;59.57;42.20;;;;;;;;;;5099505;28;20095;-69
2022/01/10 01:37:52;;;;;;;60.30;42.67;;;;;;;;;;5113271;28;20059;-69
2022/01/10 01:40:20;;;;;;;64.90;42.60;;;;;;;;;;5111724;28;20023;-69
2022/01/10 01:42:47;;;;;;;59.93;41.60;;;;;;;;;;5102059;28;20028;-70
2022/01/10 01:45:15;;;;;;;59.97;42.20;;;;;;;;;;5113237;28;20039;-69
2022/01/10 01:47:43;;;;;;;60.40;42.97;;;;;;;;;;5108227;28;20020;-69
2022/01/10 01:50:10;;;;;;;57.90;42.47;;;;;;;;;;5096738;28;20024;-69
2022/01/10 01:52:36;;;;;;;59.10;42.33;;;;;;;;;;5099658;28;20024;-69
2022/01/10 01:55:02;;;;;;;63.83;43.27;;;;;;;;;;5109783;28;20423;-69
2022/01/10 01:57:28;;;;;;;58.00;41.67;;;;;;;;;;5095243;28;20027;-69
2022/01/10 01:59:54;;;;;;;62.63;43.93;;;;;;;;;;5107770;28;20497;-69
2022/01/10 02:02:20;;;;;;;61.70;42.33;;;;;;;;;;5099990;28;20118;-69
2022/01/10 02:04:46;;;;;;;60.70;41.63;;;;;;;;;;5114103;28;20463;-69
2022/01/10 02:07:12;;;;;;;55.97;40.83;;;;;;;;;;5103540;28;20467;-69
2022/01/10 02:09:38;;;;;;;58.07;41.90;;;;;;;;;;5097418;28;20020;-69
2022/01/10 02:12:04;;;;;;;58.57;40.93;;;;;;;;;;5097977;28;20063;-69
2022/01/10 02:14:31;;;;;;;59.60;42.73;;;;;;;;;;5105745;28;20552;-69
2022/01/10 02:16:57;;;;;;;58.63;41.73;;;;;;;;;;5106722;28;20028;-69
2022/01/10 02:19:26;;;;;;;57.97;39.90;;;;;;;;;;5100488;28;20016;-69
2022/01/10 02:21:52;;;;;;;66.40;44.60;;;;;;;;;;5095197;28;20016;-69
2022/01/10 02:24:18;;;;;;;68.27;45.87;;;;;;;;;;5113625;28;20023;-69
2022/01/10 02:26:48;;;;;;;63.10;44.53;;;;;;;;;;5097215;28;20048;-69
2022/01/10 02:29:15;;;;;;;65.43;45.73;;;;;;;;;;5101572;28;20523;-69
2022/01/10 02:31:41;;;;;;;63.90;45.37;;;;;;;;;;5094052;28;20035;-70
2022/01/10 02:34:08;;;;;;;69.43;46.83;;;;;;;;;;5112659;28;20147;-70
2022/01/10 02:36:34;;;;;;;64.67;46.77;;;;;;;;;;5094877;28;20044;-69
2022/01/10 02:39:07;;;;;;;69.43;47.43;;;;;;;;;;5102214;28;20023;-70
2022/01/10 02:41:35;;;;;;;58.13;44.97;;;;;;;;;;5111669;28;20023;-70
2022/01/10 02:44:03;;;;;;;60.87;43.20;;;;;;;;;;5106021;28;20039;-69
2022/01/10 02:46:31;;;;;;;62.23;45.20;;;;;;;;;;5093948;28;20546;-69
2022/01/10 02:48:58;;;;;;;63.70;43.80;;;;;;;;;;5105842;28;20031;-69
2022/01/10 02:51:24;;;;;;;62.73;43.30;;;;;;;;;;5112165;28;20067;-70
2022/01/10 02:53:50;;;;;;;57.10;42.57;;;;;;;;;;5101650;28;20032;-70
2022/01/10 02:56:16;;;;;;;63.67;43.80;;;;;;;;;;5104785;28;20042;-70
2022/01/10 02:58:42;;;;;;;52.60;39.17;;;;;;;;;;5100336;28;20507;-69
2022/01/10 03:01:08;;;;;;;59.13;39.90;;;;;;;;;;5093341;28;20048;-70
2022/01/10 03:03:34;;;;;;;52.20;36.83;;;;;;;;;;5104613;28;20028;-70
2022/01/10 03:06:01;;;;;;;56.70;37.33;;;;;;;;;;5113991;28;20477;-70
2022/01/10 03:08:28;;;;;;;57.33;39.37;;;;;;;;;;5101041;28;20016;-70
2022/01/10 03:10:55;;;;;;;60.90;43.70;;;;;;;;;;5111253;28;20040;-69
2022/01/10 03:13:21;;;;;;;60.60;42.70;;;;;;;;;;5109078;28;20034;-69
2022/01/10 03:15:47;;;;;;;62.03;45.80;;;;;;;;;;5117706;28;20027;-69
2022/01/10 03:18:13;;;;;;;63.23;44.97;;;;;;;;;;5102886;28;20028;-69
2022/01/10 03:20:39;;;;;;;66.07;44.87;;;;;;;;;;5096938;28;20039;-69
2022/01/10 03:23:05;;;;;;;66.87;46.80;;;;;;;;;;5099873;28;20111;-69
2022/01/10 03:25:31;;;;;;;66.23;45.97;;;;;;;;;;5111299;28;20114;-69
2022/01/10 03:27:57;;;;;;;65.33;45.97;;;;;;;;;;5109551;28;20042;-70
2022/01/10 03:30:24;;;;;;;60.57;43.07;;;;;;;;;;5114439;28;20032;-69
2022/01/10 03:32:51;;;;;;;60.83;43.60;;;;;;;;;;5114696;28;20024;-69
2022/01/10 03:35:17;;;;;;;62.57;44.07;;;;;;;;;;5115949;28;20115;-69
2022/01/10 03:37:43;;;;;;;58.83;40.23;;;;;;;;;;5114521;28;20055;-69
2022/01/10 03:40:10;;;;;;;61.10;41.97;;;;;;;;;;5114286;28;20027;-69
2022/01/10 03:42:37;;;;;;;54.73;39.37;;;;;;;;;;5105986;28;20050;-69
2022/01/10 03:45:06;;;;;;;54.87;40.10;;;;;;;;;;5109502;28;20043;-69
2022/01/10 03:47:33;;;;;;;51.73;36.87;;;;;;;;;;5107051;28;20019;-69
2022/01/10 03:49:58;;;;;;;58.00;38.53;;;;;;;;;;5108651;28;20453;-69
2022/01/10 03:52:26;;;;;;;53.20;39.93;;;;;;;;;;5096423;28;20085;-69
2022/01/10 03:54:52;;;;;;;54.77;38.67;;;;;;;;;;5111687;28;20035;-69
2022/01/10 03:57:18;;;;;;;52.27;37.63;;;;;;;;;;5103887;28;20028;-69
2022/01/10 03:59:44;;;;;;;54.73;37.80;;;;;;;;;;5108401;28;20036;-69
2022/01/10 04:02:10;;;;;;;57.37;38.30;;;;;;;;;;5109242;28;20040;-69
2022/01/10 04:04:38;;;;;;;51.70;36.70;;;;;;;;;;5114916;28;20027;-69
2022/01/10 04:07:05;;;;;;;52.67;38.03;;;;;;;;;;5100907;28;20024;-69
2022/01/10 04:09:31;;;;;;;52.00;37.43;;;;;;;;;;5109008;28;20024;-69
2022/01/10 04:11:57;;;;;;;51.03;37.37;;;;;;;;;;5099700;28;20078;-69
2022/01/10 04:14:23;;;;;;;53.33;36.07;;;;;;;;;;5109442;28;20728;-69
2022/01/10 04:16:49;;;;;;;56.53;36.80;;;;;;;;;;5107285;28;20035;-69
2022/01/10 04:19:15;;;;;;;48.40;35.47;;;;;;;;;;5113377;28;20549;-69
2022/01/10 04:21:42;;;;;;;50.40;35.63;;;;;;;;;;5098739;28;20028;-69
2022/01/10 04:24:08;;;;;;;48.20;35.07;;;;;;;;;;5112822;28;20110;-69
2022/01/10 04:26:34;;;;;;;50.13;35.43;;;;;;;;;;5098687;28;20020;-69
2022/01/10 04:29:00;;;;;;;50.97;35.83;;;;;;;;;;5112895;28;20114;-69
2022/01/10 04:31:26;;;;;;;51.07;33.70;;;;;;;;;;5102009;28;20607;-69
2022/01/10 04:33:52;;;;;;;46.87;32.90;;;;;;;;;;5105129;28;20153;-69
2022/01/10 04:36:18;;;;;;;49.40;35.10;;;;;;;;;;5104466;27;20023;-69
2022/01/10 04:38:44;;;;;;;46.20;33.87;;;;;;;;;;5102035;28;20495;-69
2022/01/10 04:41:10;;;;;;;46.10;33.83;;;;;;;;;;5095307;28;20051;-69
2022/01/10 04:43:37;;;;;;;45.67;32.50;;;;;;;;;;5097704;28;20028;-69
2022/01/10 04:46:03;;;;;;;49.20;34.53;;;;;;;;;;5101864;28;20035;-69
2022/01/10 04:48:29;;;;;;;46.03;32.67;;;;;;;;;;5102467;28;20048;-69
2022/01/10 04:51:12;;;;;;;46.27;32.07;;;;;;;;;;5095913;28;20032;-69
2022/01/10 04:53:42;;;;;;;46.00;32.70;;;;;;;;;;5100189;28;20020;-69
2022/01/10 04:56:08;;;;;;;44.93;33.73;;;;;;;;;;5109446;28;20492;-69
2022/01/10 04:58:34;;;;;;;48.10;33.07;;;;;;;;;;5097801;28;20024;-70
2022/01/10 05:01:02;;;;;;;44.00;32.37;;;;;;;;;;5111959;28;20046;-70
2022/01/10 05:03:28;;;;;;;51.47;33.10;;;;;;;;;;5113017;28;20457;-71
2022/01/10 05:05:54;;;;;;;45.63;32.53;;;;;;;;;;5103437;28;20028;-71
2022/01/10 05:08:21;;;;;;;46.67;33.27;;;;;;;;;;5103222;28;20032;-70
2022/01/10 05:10:48;;;;;;;46.80;32.00;;;;;;;;;;5106138;28;20078;-71
2022/01/10 05:13:14;;;;;;;46.77;31.27;;;;;;;;;;5104516;28;20127;-70
2022/01/10 05:15:42;;;;;;;45.97;31.63;;;;;;;;;;5098455;28;20024;-70
2022/01/10 05:18:09;;;;;;;43.30;29.63;;;;;;;;;;5097973;28;20051;-70
2022/01/10 05:20:36;;;;;;;42.70;29.50;;;;;;;;;;5106844;28;20466;-70
2022/01/10 05:23:01;;;;;;;43.50;29.83;;;;;;;;;;5100039;28;20024;-70
2022/01/10 05:25:28;;;;;;;37.47;28.03;;;;;;;;;;5105819;28;20031;-71
2022/01/10 05:28:10;;;;;;;38.07;28.03;;;;;;;;;;5095225;28;20064;-71
2022/01/10 05:30:36;;;;;;;36.00;26.20;;;;;;;;;;5105268;28;20511;-71
2022/01/10 05:33:03;;;;;;;39.67;28.93;;;;;;;;;;5110093;28;20157;-71
2022/01/10 05:35:29;;;;;;;36.67;26.20;;;;;;;;;;5106967;28;20497;-70
2022/01/10 05:37:55;;;;;;;37.70;27.27;;;;;;;;;;5106120;28;20377;-71
2022/01/10 05:40:21;;;;;;;38.60;28.13;;;;;;;;;;5099168;28;20027;-71
2022/01/10 05:42:48;;;;;;;35.67;26.47;;;;;;;;;;5101802;28;20015;-71
2022/01/10 05:45:14;;;;;;;40.33;27.53;;;;;;;;;;5093669;28;20058;-70
2022/01/10 05:47:42;;;;;;;37.33;26.97;;;;;;;;;;5100469;28;20520;-71
2022/01/10 05:50:09;;;;;;;39.23;26.87;;;;;;;;;;5103879;28;20110;-70
2022/01/10 05:52:36;;;;;;;37.83;26.97;;;;;;;;;;5103164;28;20031;-71
2022/01/10 05:55:02;;;;;;;38.23;27.40;;;;;;;;;;5094141;28;20104;-70
2022/01/10 05:57:28;;;;;;;37.90;27.03;;;;;;;;;;5109279;28;20032;-70
2022/01/10 05:59:54;;;;;;;39.17;27.60;;;;;;;;;;5112762;28;20088;-70
2022/01/10 06:02:20;;;;;;;35.43;26.80;;;;;;;;;;5106183;28;20511;-71
2022/01/10 06:04:46;;;;;;;35.47;27.13;;;;;;;;;;5112590;27;20023;-71
2022/01/10 06:07:13;;;;;;;39.20;27.70;;;;;;;;;;5100834;28;20074;-70
2022/01/10 10:13:00;;;;;;;72.80;46.63;;;;;;;;;;5295383;23;20045;-61
2022/01/10 10:15:31;;;;;;;77.87;48.87;;;;;;;;;;4994008;28;20022;-61
2022/01/10 10:17:57;;;;;;;68.87;45.90;;;;;;;;;;4993526;28;20026;-61
2022/01/10 10:20:25;;;;;;;74.33;47.43;;;;;;;;;;5000812;28;20040;-62
2022/01/10 10:22:53;;;;;;;70.00;45.73;;;;;;;;;;5011078;28;20463;-60
2022/01/10 10:25:20;;;;;;;61.70;43.33;;;;;;;;;;5007752;28;20030;-61
2022/01/10 10:27:47;;;;;;;68.37;45.73;;;;;;;;;;4997119;28;20037;-62
2022/01/10 10:30:13;;;;;;;62.87;44.20;;;;;;;;;;5011657;28;20467;-62
2022/01/10 10:32:39;;;;;;;66.07;43.17;;;;;;;;;;4998335;28;20069;-62
2022/01/10 10:35:06;;;;;;;64.33;42.77;;;;;;;;;;5010461;28;20041;-61
2022/01/10 10:37:36;;;;;;;61.27;40.70;;;;;;;;;;4998302;28;20049;-61
2022/01/10 10:40:03;;;;;;;59.37;40.10;;;;;;;;;;5001403;28;20034;-61
2022/01/10 10:42:29;;;;;;;66.20;41.73;;;;;;;;;;5012178;28;20033;-61
2022/01/10 10:44:56;;;;;;;57.93;39.47;;;;;;;;;;4996178;28;20029;-61
2022/01/10 10:47:26;;;;;;;57.67;39.60;;;;;;;;;;5011138;28;20470;-61
2022/01/10 10:49:56;;;;;;;56.73;37.37;;;;;;;;;;5006897;28;20038;-62
2022/01/10 10:52:22;;;;;;;53.80;37.90;;;;;;;;;;5010558;28;20510;-61
2022/01/10 10:54:55;;;;;;;48.93;35.43;;;;;;;;;;5010476;28;20084;-61
2022/01/10 10:57:21;;;;;;;50.57;34.93;;;;;;;;;;5010698;28;20042;-61
2022/01/10 10:59:48;;;;;;;51.07;36.57;;;;;;;;;;4993193;28;20057;-61
2022/01/10 11:02:15;;;;;;;55.23;36.90;;;;;;;;;;4992380;28;20114;-63
2022/01/10 11:04:42;;;;;;;48.67;34.83;;;;;;;;;;4969209;28;20161;-62
2022/01/10 11:07:08;;;;;;;50.20;36.10;;;;;;;;;;5003765;28;20026;-62
2022/01/10 11:09:35;;;;;;;51.57;34.77;;;;;;;;;;5011780;28;20015;-62
2022/01/10 11:12:01;;;;;;;51.30;33.87;;;;;;;;;;5007568;28;20105;-62
2022/01/10 11:14:27;;;;;;;48.20;32.20;;;;;;;;;;5010632;28;20034;-62
2022/01/10 11:16:54;;;;;;;49.33;34.20;;;;;;;;;;5008754;28;20038;-62
2022/01/10 11:19:21;;;;;;;48.53;34.43;;;;;;;;;;5012186;28;20030;-62
2022/01/10 11:22:07;;;;;;;47.23;34.07;;;;;;;;;;4992059;28;20092;-62
2022/01/10 11:24:49;;;;;;;48.33;34.93;;;;;;;;;;5000273;28;20148;-61
2022/01/10 11:27:34;;;;;;;46.60;33.20;;;;;;;;;;5002925;28;20116;-62
2022/01/10 11:30:02;;;;;;;57.10;37.25;;;;;;;;;;5008438;28;20080;-62
2022/01/10 11:32:47;;;;;;;52.20;35.70;;;;;;;;;;5008365;28;20039;-61
2022/01/10 11:35:13;;;;;;;51.75;36.08;;;;;;;;;;4994212;28;20096;-61
2022/01/10 11:37:39;;;;;;;53.40;37.07;;;;;;;;;;5015800;28;20041;-62
2022/01/10 11:40:10;;;;;;;56.30;38.43;;;;;;;;;;5015541;28;20372;-61
2022/01/10 11:42:43;;;;;;;62.73;40.73;;;;;;;;;;5013787;28;20026;-62
2022/01/10 11:45:14;;;;;;;56.30;39.27;;;;;;;;;;5010214;28;20025;-62
2022/01/10 11:48:06;;;;;;;58.07;40.43;;;;;;;;;;5003421;28;20034;-62
2022/01/10 11:50:32;;;;;;;58.40;39.77;;;;;;;;;;5009550;28;20018;-62
2022/01/10 11:53:01;;;;;;;65.90;40.60;;;;;;;;;;5001626;28;20046;-63
2022/01/10 11:55:31;;;;;;;56.63;40.70;;;;;;;;;;5002843;28;20030;-62
2022/01/10 11:58:14;;;;;;;57.57;39.33;;;;;;;;;;5004513;28;20097;-63
2022/01/10 12:00:40;;;;;;;61.73;40.30;;;;;;;;;;5013081;28;20490;-62
2022/01/10 12:03:06;;;;;;;63.57;41.30;;;;;;;;;;5015870;28;20033;-62
2022/01/10 12:05:32;;;;;;;64.03;41.80;;;;;;;;;;5015531;28;20036;-62
2022/01/10 12:11:02;;;;;;;63.47;43.10;;;;;;;;;;5013668;28;20145;-62
2022/01/10 12:13:30;;;;;;;67.37;42.53;;;;;;;;;;5015823;28;20053;-63
2022/01/10 12:15:59;;;;;;;67.60;43.90;;;;;;;;;;5015011;28;20034;-62
2022/01/10 12:18:25;;;;;;;64.07;43.37;;;;;;;;;;5015896;28;20026;-62
2022/01/10 12:20:54;;;;;;;61.37;43.90;;;;;;;;;;5014652;28;20099;-62
2022/01/10 12:23:20;;;;;;;63.87;43.13;;;;;;;;;;4999996;28;20121;-63
2022/01/10 12:25:46;;;;;;;67.20;45.07;;;;;;;;;;5014586;28;20125;-62
2022/01/10 12:28:12;;;;;;;70.33;45.57;;;;;;;;;;4996342;28;20022;-62
2022/01/10 12:30:39;;;;;;;67.57;43.43;;;;;;;;;;5011036;28;20125;-62
2022/01/10 12:33:05;;;;;;;68.37;45.30;;;;;;;;;;5014005;28;20030;-62
2022/01/10 12:35:31;;;;;;;69.00;45.73;;;;;;;;;;5013390;28;20030;-62
2022/01/10 12:37:59;;;;;;;65.37;44.00;;;;;;;;;;5021559;28;20125;-62
2022/01/10 12:40:31;;;;;;;68.57;45.47;;;;;;;;;;5014261;28;20034;-62
2022/01/10 12:42:57;;;;;;;72.40;46.63;;;;;;;;;;5015531;28;20033;-62
2022/01/10 12:45:23;;;;;;;70.57;45.40;;;;;;;;;;5006971;28;20058;-62
2022/01/10 12:47:49;;;;;;;66.50;45.67;;;;;;;;;;5014480;28;20034;-62
2022/01/10 12:50:16;;;;;;;72.20;48.20;;;;;;;;;;5014286;28;20033;-62
2022/01/10 12:52:42;;;;;;;73.50;47.50;;;;;;;;;;5011778;28;20490;-62
2022/01/10 12:55:09;;;;;;;74.97;48.13;;;;;;;;;;5014799;28;20360;-62
2022/01/10 12:57:35;;;;;;;70.27;46.83;;;;;;;;;;5013213;28;20026;-62
2022/01/10 13:00:01;;;;;;;76.33;49.50;;;;;;;;;;5013720;28;20025;-62
2022/01/10 13:02:27;;;;;;;82.00;50.30;;;;;;;;;;5014615;28;20478;-62
2022/01/10 13:04:53;;;;;;;78.70;49.63;;;;;;;;;;5011373;28;20030;-62
2022/01/10 13:07:19;;;;;;;76.00;50.63;;;;;;;;;;5010932;28;20018;-62
2022/01/10 13:09:48;;;;;;;77.60;50.40;;;;;;;;;;5014096;28;20112;-62
2022/01/10 13:12:28;;;;;;;75.63;49.40;;;;;;;;;;5006818;28;20097;-62
2022/01/10 13:14:54;;;;;;;80.63;50.73;;;;;;;;;;4987003;28;20029;-63
2022/01/10 13:17:24;;;;;;;80.40;51.83;;;;;;;;;;4995978;28;20105;-63
2022/01/10 13:20:07;;;;;;;79.97;50.33;;;;;;;;;;5014820;28;20029;-63
2022/01/10 13:22:34;;;;;;;80.43;53.27;;;;;;;;;;5003956;28;20117;-63
2022/01/10 13:25:01;;;;;;;80.60;51.23;;;;;;;;;;5014465;28;20054;-63
2022/01/10 13:27:35;;;;;;;78.43;50.77;;;;;;;;;;5012866;28;20041;-63
2022/01/10 13:30:10;;;;;;;81.43;51.63;;;;;;;;;;5006966;28;20033;-63
2022/01/10 13:32:37;;;;;;;86.10;52.17;;;;;;;;;;5004857;28;20029;-62
2022/01/10 13:35:04;;;;;;;83.03;53.57;;;;;;;;;;5014186;28;20033;-62
2022/01/10 13:37:39;;;;;;;83.20;53.00;;;;;;;;;;5010622;28;20069;-62
2022/01/10 13:40:10;;;;;;;85.33;52.73;;;;;;;;;;5014581;28;20099;-63
2022/01/10 13:42:40;;;;;;;88.73;56.23;;;;;;;;;;4995569;28;20033;-62
2022/01/10 13:45:07;;;;;;;81.60;54.07;;;;;;;;;;5012705;28;20024;-62
2022/01/10 13:47:48;;;;;;;84.27;53.37;;;;;;;;;;4999863;28;20099;-62
2022/01/10 13:50:18;;;;;;;83.70;55.27;;;;;;;;;;5014316;28;20108;-61
2022/01/10 13:53:04;;;;;;;85.60;56.07;;;;;;;;;;5010779;28;20054;-61
2022/01/10 13:55:30;;;;;;;91.07;56.90;;;;;;;;;;5012271;28;20029;-62
2022/01/10 13:57:56;;;;;;;89.37;56.27;;;;;;;;;;5006857;28;20389;-63
2022/01/10 14:00:23;;;;;;;87.33;53.43;;;;;;;;;;5005685;28;20022;-63
2022/01/10 14:02:50;;;;;;;85.33;54.70;;;;;;;;;;4993988;28;20049;-63
2022/01/10 14:08:20;;;;;;;89.60;56.87;;;;;;;;;;5006683;28;20450;-62
2022/01/10 14:10:46;;;;;;;91.07;56.60;;;;;;;;;;4988654;28;20030;-62
2022/01/10 14:13:12;;;;;;;91.13;57.90;;;;;;;;;;5006839;28;20045;-62
2022/01/10 14:15:38;;;;;;;90.23;55.13;;;;;;;;;;5008610;28;20029;-62
2022/01/10 14:18:04;;;;;;;89.00;57.50;;;;;;;;;;5004248;28;20034;-62
2022/01/10 14:20:33;;;;;;;88.13;57.43;;;;;;;;;;5006842;28;20141;-62
2022/01/10 14:22:59;;;;;;;91.20;57.47;;;;;;;;;;5004309;28;20387;-62
2022/01/10 14:25:26;;;;;;;90.23;58.03;;;;;;;;;;5005439;28;20022;-62
2022/01/10 14:27:52;;;;;;;94.77;57.23;;;;;;;;;;5008645;28;20014;-62
2022/01/10 14:30:19;;;;;;;94.97;59.27;;;;;;;;;;5004480;28;20157;-61
2022/01/10 14:32:48;;;;;;;86.60;54.50;;;;;;;;;;5010399;28;20363;-62
2022/01/10 14:35:14;;;;;;;87.23;55.63;;;;;;;;;;5009405;28;20022;-62
2022/01/10 14:37:40;;;;;;;89.83;57.00;;;;;;;;;;4991602;28;20038;-62
2022/01/10 14:40:06;;;;;;;85.30;55.83;;;;;;;;;;5009987;28;20113;-63
2022/01/10 14:42:32;;;;;;;85.60;55.03;;;;;;;;;;5004776;28;20040;-63
2022/01/10 14:44:59;;;;;;;83.83;53.87;;;;;;;;;;5006392;28;20026;-63
2022/01/10 14:47:25;;;;;;;81.73;52.60;;;;;;;;;;5009232;28;20387;-63
2022/01/10 14:49:51;;;;;;;78.93;50.43;;;;;;;;;;5009244;28;20097;-63
2022/01/10 14:52:17;;;;;;;78.33;51.07;;;;;;;;;;5006840;28;20046;-63
2022/01/10 14:54:43;;;;;;;80.13;51.73;;;;;;;;;;5004122;28;20033;-63
2022/01/10 14:57:09;;;;;;;75.50;47.37;;;;;;;;;;5005922;28;20061;-63
2022/01/10 14:59:35;;;;;;;65.40;46.30;;;;;;;;;;5006032;28;20026;-63
2022/01/10 15:02:01;;;;;;;72.20;47.30;;;;;;;;;;5006201;28;20112;-63
2022/01/10 15:04:27;;;;;;;69.90;46.73;;;;;;;;;;5003389;28;20088;-63
2022/01/10 15:06:53;;;;;;;67.40;44.50;;;;;;;;;;5004573;28;21536;-63
2022/01/10 15:09:19;;;;;;;68.63;46.33;;;;;;;;;;4995114;28;20014;-63
2022/01/10 15:11:46;;;;;;;71.07;47.23;;;;;;;;;;5008006;28;20069;-61
2022/01/10 15:14:12;;;;;;;70.20;46.23;;;;;;;;;;5010452;28;20408;-62
2022/01/10 15:16:39;;;;;;;68.77;45.93;;;;;;;;;;5007324;28;20056;-62
2022/01/10 15:19:06;;;;;;;64.43;45.17;;;;;;;;;;5010702;28;20034;-62
2022/01/10 15:21:32;;;;;;;71.13;46.23;;;;;;;;;;4998862;28;20060;-62
2022/01/10 15:23:58;;;;;;;71.30;46.83;;;;;;;;;;5009486;28;20034;-61
2022/01/10 15:26:24;;;;;;;71.93;46.73;;;;;;;;;;5009630;28;20025;-63
2022/01/10 15:28:50;;;;;;;74.13;47.73;;;;;;;;;;5010164;28;20033;-61
2022/01/10 15:31:16;;;;;;;75.43;48.17;;;;;;;;;;5010683;28;20037;-62
2022/01/10 15:33:42;;;;;;;74.57;50.87;;;;;;;;;;4994624;28;20379;-62
2022/01/10 15:36:09;;;;;;;76.03;48.87;;;;;;;;;;5010939;28;20037;-62
2022/01/10 15:38:35;;;;;;;77.03;47.83;;;;;;;;;;5012488;28;20557;-62
2022/01/10 15:41:02;;;;;;;81.10;50.23;;;;;;;;;;5015596;28;20030;-61
2022/01/10 15:43:30;;;;;;;76.07;50.20;;;;;;;;;;5013038;28;20028;-62
2022/01/10 15:45:57;;;;;;;78.30;51.93;;;;;;;;;;4994499;28;20088;-62
2022/01/10 15:48:23;;;;;;;78.60;50.57;;;;;;;;;;5011139;28;20259;-62
2022/01/10 15:50:49;;;;;;;84.17;52.37;;;;;;;;;;4991438;28;20030;-61
2022/01/10 15:53:16;;;;;;;79.70;51.47;;;;;;;;;;5014217;28;20028;-62
2022/01/10 15:55:42;;;;;;;82.00;52.50;;;;;;;;;;5011018;28;20490;-62
2022/01/10 15:58:08;;;;;;;81.60;51.93;;;;;;;;;;5009845;28;20033;-62
2022/01/10 16:00:40;;;;;;;77.33;51.10;;;;;;;;;;5014268;28;20026;-62
2022/01/10 16:03:06;;;;;;;79.43;52.10;;;;;;;;;;5000149;28;20396;-62
2022/01/10 16:05:36;;;;;;;84.00;53.03;;;;;;;;;;5011177;28;20022;-62
2022/01/10 16:08:03;;;;;;;83.27;53.13;;;;;;;;;;5002973;28;20158;-63
2022/01/10 16:10:29;;;;;;;78.37;52.33;;;;;;;;;;5013699;28;20014;-62
2022/01/10 16:12:55;;;;;;;84.57;52.10;;;;;;;;;;5014040;28;20052;-63
2022/01/10 16:15:22;;;;;;;83.70;52.73;;;;;;;;;;5014503;28;20030;-63
2022/01/10 16:17:50;;;;;;;83.20;51.17;;;;;;;;;;5011347;28;20072;-63
2022/01/10 16:20:16;;;;;;;81.10;51.93;;;;;;;;;;5004603;28;20430;-63
2022/01/10 16:22:42;;;;;;;78.47;50.20;;;;;;;;;;5014450;28;20483;-62
2022/01/10 16:25:08;;;;;;;78.23;52.13;;;;;;;;;;5013756;28;20073;-63
2022/01/10 16:27:35;;;;;;;83.47;53.50;;;;;;;;;;5014741;28;20049;-62
2022/01/10 16:30:01;;;;;;;79.40;50.77;;;;;;;;;;5007532;28;20054;-62
2022/01/10 16:32:27;;;;;;;84.23;52.50;;;;;;;;;;5010516;28;20033;-62
2022/01/10 16:34:56;;;;;;;79.03;53.47;;;;;;;;;;5012886;28;20026;-62
2022/01/10 16:37:22;;;;;;;81.57;52.57;;;;;;;;;;5014062;28;20029;-62
2022/01/10 16:39:48;;;;;;;83.47;52.17;;;;;;;;;;5013055;28;20052;-62
2022/01/10 16:42:15;;;;;;;81.87;53.47;;;;;;;;;;4995691;28;20029;-62
2022/01/10 16:44:41;;;;;;;81.57;53.03;;;;;;;;;;5005019;28;20029;-62
2022/01/10 16:47:08;;;;;;;82.83;51.83;;;;;;;;;;5014631;28;20025;-62
2022/01/10 16:49:34;;;;;;;84.37;53.53;;;;;;;;;;5011723;28;20041;-61
2022/01/10 16:52:00;;;;;;;81.70;53.03;;;;;;;;;;5014321;28;20499;-62
2022/01/10 16:54:26;;;;;;;78.17;50.70;;;;;;;;;;5008797;28;20034;-62
2022/01/10 16:56:52;;;;;;;85.10;53.23;;;;;;;;;;5008668;28;20040;-62
2022/01/10 16:59:19;;;;;;;80.30;52.07;;;;;;;;;;5012788;28;20022;-62
2022/01/10 17:01:45;;;;;;;80.67;53.33;;;;;;;;;;5013059;28;20479;-62
2022/01/10 17:04:11;;;;;;;88.20;55.23;;;;;;;;;;4994263;28;20033;-62
2022/01/10 17:06:37;;;;;;;86.90;54.73;;;;;;;;;;5013480;28;20060;-62
2022/01/10 17:09:04;;;;;;;86.37;53.93;;;;;;;;;;5013932;28;20042;-62
2022/01/10 17:11:30;;;;;;;85.07;54.10;;;;;;;;;;5013607;28;20053;-62
2022/01/10 17:13:56;;;;;;;89.87;55.27;;;;;;;;;;5012647;28;20137;-61
2022/01/10 17:16:22;;;;;;;83.23;53.47;;;;;;;;;;4985731;28;20084;-62
2022/01/10 17:18:48;;;;;;;82.80;53.97;;;;;;;;;;5011683;28;20447;-61
2022/01/10 17:21:14;;;;;;;81.80;52.83;;;;;;;;;;5011770;28;20030;-62
2022/01/10 17:23:40;;;;;;;86.50;56.00;;;;;;;;;;5013740;28;20033;-62
2022/01/10 17:26:06;;;;;;;88.07;53.67;;;;;;;;;;4980413;28;20033;-62
2022/01/10 17:31:36;;;;;;;81.23;54.13;;;;;;;;;;5012385;28;20076;-62
2022/01/10 17:37:06;;;;;;;84.17;53.17;;;;;;;;;;5010413;28;20075;-61
2022/01/10 17:42:38;;;;;;;79.60;52.33;;;;;;;;;;5006902;28;20044;-61
2022/01/10 17:54:15;;;;;;;77.93;50.27;;;;;;;;;;5005853;28;20104;-62
2022/01/10 17:56:42;;;;;;;81.77;52.93;;;;;;;;;;5010795;28;20101;-62
2022/01/10 17:59:08;;;;;;;78.77;50.00;;;;;;;;;;5008189;28;20038;-62
2022/01/10 18:01:34;;;;;;;81.10;51.00;;;;;;;;;;5001299;28;20045;-62
2022/01/10 18:04:00;;;;;;;77.43;51.77;;;;;;;;;;4991614;28;20099;-62
2022/01/10 18:06:27;;;;;;;76.97;51.10;;;;;;;;;;4994377;28;20054;-61
2022/01/10 18:08:53;;;;;;;77.30;50.30;;;;;;;;;;4994147;28;20030;-62
2022/01/10 18:11:19;;;;;;;80.40;48.87;;;;;;;;;;4994631;28;20121;-61
2022/01/10 18:13:45;;;;;;;74.37;49.10;;;;;;;;;;5010567;28;20081;-61
2022/01/10 18:16:11;;;;;;;77.00;50.10;;;;;;;;;;5002099;28;20064;-61
2022/01/10 18:18:37;;;;;;;73.47;48.47;;;;;;;;;;5011837;28;20464;-62
2022/01/10 18:21:05;;;;;;;74.33;46.90;;;;;;;;;;4989318;28;20048;-62
2022/01/10 18:23:31;;;;;;;78.40;48.90;;;;;;;;;;5012481;28;20105;-62
2022/01/10 18:25:57;;;;;;;68.53;46.47;;;;;;;;;;5012804;28;20034;-61
2022/01/10 18:28:23;;;;;;;73.37;48.07;;;;;;;;;;5012639;28;20113;-61
2022/01/10 18:30:49;;;;;;;71.73;49.43;;;;;;;;;;4987721;28;20099;-62
2022/01/10 18:33:15;;;;;;;71.27;47.07;;;;;;;;;;5013567;28;20018;-62
2022/01/10 18:35:41;;;;;;;70.33;45.83;;;;;;;;;;5008073;28;20030;-62
2022/01/10 18:38:08;;;;;;;72.60;48.43;;;;;;;;;;5013182;28;20490;-62
2022/01/10 18:40:36;;;;;;;70.40;48.50;;;;;;;;;;5009962;28;20101;-62
2022/01/10 18:43:02;;;;;;;74.30;48.70;;;;;;;;;;5012839;28;20050;-62
2022/01/10 18:45:28;;;;;;;72.00;47.60;;;;;;;;;;5012827;28;20486;-61
2022/01/10 18:47:54;;;;;;;69.17;46.60;;;;;;;;;;5012688;28;20394;-62
2022/01/10 18:50:20;;;;;;;71.23;46.00;;;;;;;;;;5011103;28;20034;-61